createdAt,value
2017-04-02T00:00:48.859Z,33.36
2017-04-02T00:01:59.141Z,33.26
2017-04-02T00:03:08.800Z,33.55
2017-04-02T00:04:19.096Z,33.55
2017-04-02T00:05:29.622Z,33.55
2017-04-02T00:06:39.902Z,33.55
2017-04-02T00:07:50.186Z,33.44
2017-04-02T00:09:00.462Z,33.17
2017-04-02T00:10:10.114Z,33.26
2017-04-02T00:11:20.653Z,33.07
2017-04-02T00:12:30.931Z,33.26
2017-04-02T00:13:41.200Z,33.25
2017-04-02T00:14:51.164Z,33.26
2017-04-02T00:16:01.125Z,33.36
2017-04-02T00:17:11.657Z,33.26
2017-04-02T00:18:21.609Z,33.26
2017-04-02T00:19:31.576Z,33.25
2017-04-02T00:20:41.860Z,33.07
2017-04-02T00:21:52.138Z,33.36
2017-04-02T00:23:02.663Z,33.05
2017-04-02T00:24:12.933Z,33.07
2017-04-02T00:25:23.217Z,33.07
2017-04-02T00:26:33.496Z,33.15
2017-04-02T00:27:44.044Z,33.17
2017-04-02T00:28:54.259Z,33.05
2017-04-02T00:30:04.587Z,33.25
2017-04-02T00:31:14.900Z,32.95
2017-04-02T00:32:25.223Z,33.34
2017-04-02T00:33:35.488Z,33.34
2017-04-02T00:34:46.023Z,33.26
2017-04-02T00:35:56.300Z,33.15
2017-04-02T00:37:06.577Z,33.25
2017-04-02T00:38:16.544Z,33.36
2017-04-02T00:39:26.810Z,33.34
2017-04-02T00:40:37.338Z,33.26
2017-04-02T00:41:47.604Z,33.45
2017-04-02T00:42:57.278Z,32.95
2017-04-02T00:44:07.251Z,33.05
2017-04-02T00:45:17.211Z,33.25
2017-04-02T00:46:27.737Z,32.95
2017-04-02T00:47:38.010Z,33.34
2017-04-02T00:48:48.293Z,33.34
2017-04-02T00:49:58.249Z,33.25
2017-04-02T00:51:08.219Z,33.25
2017-04-02T00:52:18.738Z,33.34
2017-04-02T00:53:29.015Z,33.25
2017-04-02T00:54:39.294Z,33.53
2017-04-02T00:55:49.257Z,33.34
2017-04-02T00:56:59.536Z,33.15
2017-04-02T00:58:10.061Z,33.34
2017-04-02T00:59:20.334Z,33.05
2017-04-02T01:00:30.593Z,33.53
2017-04-02T01:01:40.262Z,33.53
2017-04-02T01:02:50.236Z,33.63
2017-04-02T01:04:00.761Z,33.44
2017-04-02T01:05:10.718Z,33.53
2017-04-02T01:06:20.685Z,33.25
2017-04-02T01:07:30.955Z,33.25
2017-04-02T01:08:41.233Z,33.34
2017-04-02T01:09:51.754Z,33.15
2017-04-02T01:11:01.715Z,33.34
2017-04-02T01:12:12.006Z,33.25
2017-04-02T01:13:22.285Z,33.15
2017-04-02T01:14:32.567Z,33.34
2017-04-02T01:15:43.082Z,33.34
2017-04-02T01:16:53.358Z,33.25
2017-04-02T01:18:03.640Z,33.25
2017-04-02T01:19:13.945Z,33.15
2017-04-02T01:20:24.222Z,33.05
2017-04-02T01:21:34.486Z,33.15
2017-04-02T01:22:44.451Z,33.15
2017-04-02T01:23:54.724Z,33.34
2017-04-02T01:25:05.203Z,33.25
2017-04-02T01:26:15.512Z,32.95
2017-04-02T01:27:26.043Z,33.15
2017-04-02T01:28:36.312Z,32.95
2017-04-02T01:29:46.583Z,32.86
2017-04-02T01:30:56.865Z,33.05
2017-04-02T01:32:07.133Z,33.05
2017-04-02T01:33:17.652Z,32.95
2017-04-02T01:34:27.617Z,32.95
2017-04-02T01:35:37.681Z,32.76
2017-04-02T01:36:47.956Z,32.86
2017-04-02T01:37:57.914Z,32.95
2017-04-02T01:39:08.118Z,32.86
2017-04-02T01:40:17.768Z,32.86
2017-04-02T01:41:27.730Z,32.76
2017-04-02T01:42:37.693Z,32.86
2017-04-02T01:43:47.964Z,32.76
2017-04-02T01:44:58.492Z,32.67
2017-04-02T01:46:08.475Z,32.76
2017-04-02T01:47:18.737Z,32.86
2017-04-02T01:48:28.711Z,32.76
2017-04-02T01:49:38.360Z,32.86
2017-04-02T01:50:48.647Z,32.76
2017-04-02T01:51:58.625Z,32.86
2017-04-02T01:53:08.895Z,32.86
2017-04-02T01:54:19.171Z,32.95
2017-04-02T01:55:29.447Z,32.57
2017-04-02T01:56:39.664Z,32.95
2017-04-02T01:57:49.932Z,32.47
2017-04-02T01:59:00.206Z,32.86
2017-04-02T02:00:10.489Z,32.76
2017-04-02T02:01:20.758Z,32.76
2017-04-02T02:02:31.281Z,32.76
2017-04-02T02:03:41.563Z,32.67
2017-04-02T02:04:51.536Z,32.67
2017-04-02T02:06:01.816Z,32.47
2017-04-02T02:07:12.095Z,32.57
2017-04-02T02:08:22.295Z,32.57
2017-04-02T02:09:32.258Z,32.57
2017-04-02T02:10:42.777Z,32.57
2017-04-02T02:11:52.746Z,32.57
2017-04-02T02:13:03.023Z,32.38
2017-04-02T02:14:13.551Z,32.47
2017-04-02T02:15:23.830Z,32.47
2017-04-02T02:16:34.100Z,32.47
2017-04-02T02:17:44.067Z,32.57
2017-04-02T02:18:54.029Z,31.99
2017-04-02T02:20:04.604Z,32.38
2017-04-02T02:21:14.865Z,32.18
2017-04-02T02:22:25.130Z,32.18
2017-04-02T02:23:35.097Z,32.28
2017-04-02T02:24:45.369Z,32.09
2017-04-02T02:25:55.929Z,32.18
2017-04-02T02:27:05.594Z,32.28
2017-04-02T02:28:15.560Z,32.28
2017-04-02T02:29:25.527Z,32.18
2017-04-02T02:30:35.800Z,32.18
2017-04-02T02:31:45.751Z,32.09
2017-04-02T02:32:55.716Z,31.99
2017-04-02T02:34:05.679Z,31.99
2017-04-02T02:35:15.660Z,32.18
2017-04-02T02:36:25.924Z,32.18
2017-04-02T02:37:36.640Z,31.99
2017-04-02T02:38:46.915Z,32.18
2017-04-02T02:39:57.182Z,31.99
2017-04-02T02:41:06.849Z,32.09
2017-04-02T02:42:17.124Z,31.99
2017-04-02T02:43:27.655Z,31.99
2017-04-02T02:44:37.606Z,32.09
2017-04-02T02:45:47.882Z,32.18
2017-04-02T02:46:58.159Z,32.18
2017-04-02T02:48:08.440Z,31.99
2017-04-02T02:49:18.966Z,31.99
2017-04-02T02:50:29.236Z,32.28
2017-04-02T02:51:39.197Z,32.18
2017-04-02T02:52:49.519Z,31.99
2017-04-02T02:53:59.796Z,32.09
2017-04-02T02:55:10.007Z,31.99
2017-04-02T02:56:20.287Z,31.99
2017-04-02T02:57:30.553Z,31.9
2017-04-02T02:58:40.517Z,31.9
2017-04-02T02:59:50.470Z,32.09
2017-04-02T03:01:00.991Z,31.99
2017-04-02T03:02:11.264Z,31.8
2017-04-02T03:03:21.539Z,31.99
2017-04-02T03:04:31.496Z,31.9
2017-04-02T03:05:41.768Z,31.9
2017-04-02T03:06:51.979Z,31.9
2017-04-02T03:08:01.670Z,31.9
2017-04-02T03:09:11.940Z,31.9
2017-04-02T03:10:21.895Z,31.8
2017-04-02T03:11:31.885Z,31.9
2017-04-02T03:12:42.144Z,31.9
2017-04-02T03:13:52.420Z,31.9
2017-04-02T03:15:02.382Z,31.9
2017-04-02T03:16:12.659Z,31.8
2017-04-02T03:17:22.666Z,31.8
2017-04-02T03:18:33.206Z,31.7
2017-04-02T03:19:43.516Z,31.6
2017-04-02T03:20:53.789Z,31.6
2017-04-02T03:22:03.774Z,31.6
2017-04-02T03:23:14.043Z,31.51
2017-04-02T03:24:24.625Z,31.6
2017-04-02T03:25:34.605Z,31.7
2017-04-02T03:26:44.885Z,31.6
2017-04-02T03:27:55.149Z,31.7
2017-04-02T03:29:05.110Z,31.7
2017-04-02T03:30:15.685Z,31.7
2017-04-02T03:31:25.960Z,31.7
2017-04-02T03:32:35.929Z,31.6
2017-04-02T03:33:46.199Z,31.7
2017-04-02T03:34:56.482Z,31.7
2017-04-02T03:36:07.000Z,31.51
2017-04-02T03:37:17.276Z,31.6
2017-04-02T03:38:27.549Z,31.41
2017-04-02T03:39:37.820Z,31.51
2017-04-02T03:40:48.104Z,31.41
2017-04-02T03:41:58.367Z,31.51
2017-04-02T03:43:08.020Z,31.41
2017-04-02T03:44:17.976Z,31.51
2017-04-02T03:45:28.252Z,31.51
2017-04-02T03:46:38.208Z,31.51
2017-04-02T03:47:48.732Z,31.51
2017-04-02T03:48:59.012Z,31.51
2017-04-02T03:50:09.288Z,31.51
2017-04-02T03:51:19.558Z,31.41
2017-04-02T03:52:29.516Z,31.51
2017-04-02T03:53:40.051Z,31.51
2017-04-02T03:54:50.360Z,31.51
2017-04-02T03:56:00.634Z,31.41
2017-04-02T03:57:10.907Z,31.51
2017-04-02T03:58:21.181Z,31.6
2017-04-02T03:59:31.406Z,31.4
2017-04-02T04:00:41.382Z,31.41
2017-04-02T04:01:51.656Z,31.32
2017-04-02T04:03:01.919Z,31.4
2017-04-02T04:04:12.202Z,31.49
2017-04-02T04:05:22.775Z,31.41
2017-04-02T04:06:32.736Z,31.41
2017-04-02T04:07:42.689Z,31.49
2017-04-02T04:08:52.966Z,31.51
2017-04-02T04:10:03.237Z,31.51
2017-04-02T04:11:13.461Z,31.49
2017-04-02T04:12:23.735Z,31.49
2017-04-02T04:13:34.006Z,31.51
2017-04-02T04:14:44.272Z,31.49
2017-04-02T04:15:54.244Z,31.49
2017-04-02T04:17:04.774Z,31.4
2017-04-02T04:18:15.046Z,31.51
2017-04-02T04:19:25.006Z,31.4
2017-04-02T04:20:35.275Z,31.49
2017-04-02T04:21:45.547Z,31.4
2017-04-02T04:22:56.070Z,31.51
2017-04-02T04:24:06.357Z,31.49
2017-04-02T04:25:16.641Z,31.4
2017-04-02T04:26:26.917Z,31.3
2017-04-02T04:27:36.886Z,31.4
2017-04-02T04:28:47.410Z,31.3
2017-04-02T04:29:57.677Z,31.49
2017-04-02T04:31:07.963Z,31.49
2017-04-02T04:32:17.932Z,31.32
2017-04-02T04:33:27.906Z,31.49
2017-04-02T04:34:38.427Z,31.3
2017-04-02T04:35:48.701Z,31.4
2017-04-02T04:36:58.688Z,31.49
2017-04-02T04:38:08.948Z,31.4
2017-04-02T04:39:19.225Z,31.4
2017-04-02T04:40:29.443Z,31.4
2017-04-02T04:41:39.405Z,31.59
2017-04-02T04:42:49.675Z,31.4
2017-04-02T04:43:59.633Z,31.49
2017-04-02T04:45:09.908Z,31.4
2017-04-02T04:46:20.118Z,31.4
2017-04-02T04:47:30.399Z,31.49
2017-04-02T04:48:40.667Z,31.49
2017-04-02T04:49:50.624Z,31.51
2017-04-02T04:51:00.588Z,31.4
2017-04-02T04:52:11.130Z,31.49
2017-04-02T04:53:21.401Z,31.49
2017-04-02T04:54:31.674Z,31.49
2017-04-02T04:55:41.942Z,31.59
2017-04-02T04:56:52.213Z,31.59
2017-04-02T04:58:02.793Z,31.49
2017-04-02T04:59:13.066Z,31.69
2017-04-02T05:00:23.569Z,31.78
2017-04-02T05:01:33.537Z,31.69
2017-04-02T05:02:43.808Z,31.69
2017-04-02T05:03:54.066Z,31.69
2017-04-02T05:05:04.340Z,31.69
2017-04-02T05:06:14.306Z,31.69
2017-04-02T05:07:24.585Z,31.69
2017-04-02T05:08:34.554Z,31.59
2017-04-02T05:09:45.073Z,31.69
2017-04-02T05:10:55.349Z,31.69
2017-04-02T05:12:05.624Z,31.69
2017-04-02T05:13:15.896Z,31.69
2017-04-02T05:14:25.850Z,31.69
2017-04-02T05:15:36.373Z,31.59
2017-04-02T05:16:46.646Z,31.59
2017-04-02T05:17:56.933Z,31.69
2017-04-02T05:19:07.204Z,31.59
2017-04-02T05:20:17.475Z,31.59
2017-04-02T05:21:27.738Z,31.59
2017-04-02T05:22:38.026Z,31.6
2017-04-02T05:23:48.294Z,31.59
2017-04-02T05:24:58.582Z,31.59
2017-04-02T05:26:08.870Z,31.69
2017-04-02T05:27:19.391Z,31.69
2017-04-02T05:28:29.377Z,31.59
2017-04-02T05:29:39.698Z,31.59
2017-04-02T05:30:49.677Z,31.69
2017-04-02T05:31:59.954Z,31.78
2017-04-02T05:33:10.182Z,31.78
2017-04-02T05:34:20.153Z,31.78
2017-04-02T05:35:29.802Z,31.78
2017-04-02T05:36:40.071Z,31.69
2017-04-02T05:37:50.341Z,31.78
2017-04-02T05:39:00.299Z,31.78
2017-04-02T05:40:10.581Z,31.69
2017-04-02T05:41:20.573Z,31.78
2017-04-02T05:42:30.848Z,31.69
2017-04-02T05:43:40.502Z,31.69
2017-04-02T05:44:50.097Z,31.9
2017-04-02T05:46:00.372Z,31.69
2017-04-02T05:47:10.644Z,31.78
2017-04-02T05:48:20.910Z,31.69
2017-04-02T05:49:31.176Z,31.78
2017-04-02T05:50:41.711Z,31.69
2017-04-02T05:51:51.681Z,31.78
2017-04-02T05:53:01.649Z,31.69
2017-04-02T05:54:11.917Z,31.7
2017-04-02T05:55:22.202Z,31.69
2017-04-02T05:56:32.103Z,31.69
2017-04-02T05:57:42.379Z,31.88
2017-04-02T05:58:52.653Z,31.9
2017-04-02T06:00:02.327Z,31.7
2017-04-02T06:01:12.288Z,31.69
2017-04-02T06:02:22.510Z,31.7
2017-04-02T06:03:32.822Z,31.78
2017-04-02T06:04:42.816Z,31.98
2017-04-02T06:05:52.789Z,31.69
2017-04-02T06:07:03.081Z,31.9
2017-04-02T06:08:13.626Z,31.9
2017-04-02T06:09:23.898Z,31.8
2017-04-02T06:10:34.191Z,31.7
2017-04-02T06:11:44.163Z,31.7
2017-04-02T06:12:54.438Z,31.7
2017-04-02T06:14:04.962Z,31.7
2017-04-02T06:15:15.232Z,31.7
2017-04-02T06:16:25.204Z,31.8
2017-04-02T06:17:35.470Z,31.7
2017-04-02T06:18:45.441Z,31.6
2017-04-02T06:19:56.007Z,31.7
2017-04-02T06:21:06.343Z,31.6
2017-04-02T06:22:16.615Z,31.7
2017-04-02T06:23:26.892Z,31.6
2017-04-02T06:24:37.172Z,31.6
2017-04-02T06:25:47.759Z,31.7
2017-04-02T06:26:58.074Z,31.6
2017-04-02T06:28:08.349Z,31.6
2017-04-02T06:29:18.638Z,31.6
2017-04-02T06:30:28.920Z,31.6
2017-04-02T06:31:39.159Z,31.6
2017-04-02T06:32:49.149Z,31.6
2017-04-02T06:33:59.431Z,31.6
2017-04-02T06:35:09.393Z,31.7
2017-04-02T06:36:19.669Z,31.6
2017-04-02T06:37:30.198Z,31.7
2017-04-02T06:38:40.475Z,31.7
2017-04-02T06:39:50.752Z,31.6
2017-04-02T06:41:01.040Z,31.7
2017-04-02T06:42:10.998Z,31.7
2017-04-02T06:43:20.899Z,31.6
2017-04-02T06:44:31.191Z,31.6
2017-04-02T06:45:41.161Z,31.6
2017-04-02T06:46:51.474Z,31.6
2017-04-02T06:48:01.454Z,31.6
2017-04-02T06:49:11.674Z,31.7
2017-04-02T06:50:21.631Z,31.6
2017-04-02T06:51:31.910Z,31.7
2017-04-02T06:52:42.193Z,31.6
2017-04-02T06:53:52.461Z,31.6
2017-04-02T06:55:02.984Z,31.6
2017-04-02T06:56:12.961Z,31.6
2017-04-02T06:57:22.932Z,31.6
2017-04-02T06:58:33.217Z,31.7
2017-04-02T06:59:43.511Z,31.6
2017-04-02T07:00:53.725Z,31.7
2017-04-02T07:02:03.370Z,31.6
2017-04-02T07:03:13.014Z,31.6
2017-04-02T07:04:23.297Z,31.7
2017-04-02T07:05:33.573Z,31.7
2017-04-02T07:06:44.097Z,31.8
2017-04-02T07:07:54.372Z,31.6
2017-04-02T07:09:04.687Z,31.6
2017-04-02T07:10:14.981Z,31.6
2017-04-02T07:11:24.939Z,31.6
2017-04-02T07:12:34.844Z,31.6
2017-04-02T07:13:44.813Z,31.7
2017-04-02T07:14:55.091Z,31.7
2017-04-02T07:16:05.075Z,31.7
2017-04-02T07:17:15.364Z,31.8
2017-04-02T07:18:25.890Z,31.7
2017-04-02T07:19:35.862Z,31.7
2017-04-02T07:20:46.129Z,31.6
2017-04-02T07:21:56.441Z,31.7
2017-04-02T07:23:06.412Z,31.7
2017-04-02T07:24:16.984Z,31.6
2017-04-02T07:25:26.642Z,31.7
2017-04-02T07:26:36.938Z,31.6
2017-04-02T07:27:46.906Z,31.6
2017-04-02T07:28:56.866Z,31.7
2017-04-02T07:30:07.419Z,31.7
2017-04-02T07:31:17.387Z,31.6
2017-04-02T07:32:27.679Z,31.8
2017-04-02T07:33:37.335Z,31.8
2017-04-02T07:34:47.614Z,31.8
2017-04-02T07:35:58.132Z,31.8
2017-04-02T07:37:08.473Z,31.7
2017-04-02T07:38:18.432Z,31.8
2017-04-02T07:39:28.701Z,31.9
2017-04-02T07:40:38.375Z,31.9
2017-04-02T07:41:48.595Z,31.9
2017-04-02T07:42:58.879Z,31.9
2017-04-02T07:44:09.164Z,31.99
2017-04-02T07:45:19.437Z,31.99
2017-04-02T07:46:29.089Z,31.9
2017-04-02T07:47:39.624Z,31.99
2017-04-02T07:48:49.584Z,31.9
2017-04-02T07:49:59.861Z,31.9
2017-04-02T07:51:10.142Z,31.8
2017-04-02T07:52:20.116Z,31.8
2017-04-02T07:53:30.685Z,31.8
2017-04-02T07:54:40.657Z,31.9
2017-04-02T07:55:50.929Z,31.9
2017-04-02T07:57:00.604Z,31.9
2017-04-02T07:58:10.265Z,31.99
2017-04-02T07:59:20.527Z,31.99
2017-04-02T08:00:30.490Z,31.99
2017-04-02T08:01:40.767Z,32.09
2017-04-02T08:02:51.049Z,31.8
2017-04-02T08:04:01.306Z,31.99
2017-04-02T08:05:11.834Z,31.99
2017-04-02T08:06:22.113Z,31.99
2017-04-02T08:07:32.393Z,31.99
2017-04-02T08:08:42.379Z,31.99
2017-04-02T08:09:52.346Z,32.18
2017-04-02T08:11:01.941Z,32.18
2017-04-02T08:12:12.206Z,32.18
2017-04-02T08:13:22.186Z,31.99
2017-04-02T08:14:32.458Z,32.18
2017-04-02T08:15:42.424Z,32.18
2017-04-02T08:16:52.648Z,32.18
2017-04-02T08:18:02.939Z,31.99
2017-04-02T08:19:13.220Z,32.18
2017-04-02T08:20:23.496Z,32.09
2017-04-02T08:21:34.423Z,32.47
2017-04-02T08:22:44.949Z,32.18
2017-04-02T08:23:55.229Z,32.18
2017-04-02T08:25:05.509Z,32.18
2017-04-02T08:26:15.488Z,32.28
2017-04-02T08:27:25.774Z,32.18
2017-04-02T08:28:36.295Z,32.09
2017-04-02T08:29:46.580Z,32.28
2017-04-02T08:30:56.856Z,32.28
2017-04-02T08:32:07.142Z,32.18
2017-04-02T08:33:17.114Z,32.28
2017-04-02T08:34:27.386Z,32.28
2017-04-02T08:35:37.679Z,32.28
2017-04-02T08:36:47.956Z,32.28
2017-04-02T08:37:58.286Z,32.38
2017-04-02T08:39:08.256Z,32.47
2017-04-02T08:40:18.521Z,32.47
2017-04-02T08:41:28.838Z,32.38
2017-04-02T08:42:39.125Z,32.47
2017-04-02T08:43:49.395Z,32.47
2017-04-02T08:44:59.360Z,32.47
2017-04-02T08:46:09.592Z,32.38
2017-04-02T08:47:19.916Z,32.38
2017-04-02T08:48:30.224Z,32.57
2017-04-02T08:49:40.512Z,32.47
2017-04-02T08:50:50.788Z,32.47
2017-04-02T08:52:01.334Z,32.47
2017-04-02T08:53:11.618Z,32.57
2017-04-02T08:54:21.273Z,32.57
2017-04-02T08:55:30.936Z,32.47
2017-04-02T08:56:40.981Z,32.47
2017-04-02T08:57:51.217Z,32.95
2017-04-02T08:59:01.206Z,32.95
2017-04-02T09:00:11.494Z,32.76
2017-04-02T09:01:21.464Z,32.76
2017-04-02T09:02:31.427Z,32.86
2017-04-02T09:03:41.342Z,32.76
2017-04-02T09:04:51.634Z,32.47
2017-04-02T09:06:01.614Z,32.86
2017-04-02T09:07:11.594Z,32.67
2017-04-02T09:08:21.574Z,32.95
2017-04-02T09:09:32.140Z,32.95
2017-04-02T09:10:42.420Z,32.95
2017-04-02T09:11:52.415Z,32.86
2017-04-02T09:13:02.397Z,32.67
2017-04-02T09:14:12.692Z,32.86
2017-04-02T09:15:23.239Z,32.67
2017-04-02T09:16:33.533Z,32.86
2017-04-02T09:17:43.834Z,32.76
2017-04-02T09:18:54.140Z,32.67
2017-04-02T09:20:04.433Z,32.76
2017-04-02T09:21:15.029Z,32.86
2017-04-02T09:22:24.702Z,33.05
2017-04-02T09:23:35.008Z,33.05
2017-04-02T09:24:45.301Z,33.15
2017-04-02T09:25:55.621Z,33.15
2017-04-02T09:27:06.202Z,33.05
2017-04-02T09:28:16.515Z,32.86
2017-04-02T09:29:26.805Z,33.05
2017-04-02T09:30:36.790Z,33.05
2017-04-02T09:31:46.780Z,32.95
2017-04-02T09:32:57.349Z,32.97
2017-04-02T09:34:07.632Z,32.95
2017-04-02T09:35:17.918Z,32.95
2017-04-02T09:36:28.228Z,32.95
2017-04-02T09:37:38.519Z,33.15
2017-04-02T09:38:49.059Z,33.15
2017-04-02T09:39:59.345Z,33.25
2017-04-02T09:41:09.342Z,33.25
2017-04-02T09:42:19.631Z,33.25
2017-04-02T09:43:29.921Z,33.25
2017-04-02T09:44:40.165Z,33.15
2017-04-02T09:45:50.152Z,33.34
2017-04-02T09:47:00.432Z,33.25
2017-04-02T09:48:10.425Z,33.34
2017-04-02T09:49:20.725Z,33.34
2017-04-02T09:50:31.269Z,33.17
2017-04-02T09:51:41.592Z,33.25
2017-04-02T09:52:51.892Z,33.15
2017-04-02T09:54:02.185Z,33.15
2017-04-02T09:55:12.492Z,33.26
2017-04-02T09:56:23.041Z,33.17
2017-04-02T09:57:33.345Z,33.15
2017-04-02T09:58:43.635Z,32.95
2017-04-02T09:59:53.289Z,33.07
2017-04-02T10:01:03.593Z,33.44
2017-04-02T10:02:13.840Z,33.25
2017-04-02T10:03:23.822Z,33.36
2017-04-02T10:04:34.139Z,33.34
2017-04-02T10:05:44.439Z,33.26
2017-04-02T10:06:54.420Z,32.95
2017-04-02T10:08:04.660Z,33.36
2017-04-02T10:09:14.957Z,33.15
2017-04-02T10:10:25.255Z,33.34
2017-04-02T10:11:35.547Z,33.07
2017-04-02T10:12:45.875Z,33.17
2017-04-02T10:13:56.103Z,33.15
2017-04-02T10:15:06.091Z,33.36
2017-04-02T10:16:16.400Z,33.26
2017-04-02T10:17:26.726Z,33.26
2017-04-02T10:18:37.025Z,33.25
2017-04-02T10:19:47.603Z,33.26
2017-04-02T10:20:57.281Z,33.05
2017-04-02T10:22:07.585Z,33.36
2017-04-02T10:23:17.894Z,33.17
2017-04-02T10:24:28.229Z,33.25
2017-04-02T10:25:38.789Z,33.07
2017-04-02T10:26:49.091Z,33.45
2017-04-02T10:27:59.407Z,33.17
2017-04-02T10:29:09.392Z,33.55
2017-04-02T10:30:19.704Z,33.55
2017-04-02T10:31:29.964Z,33.26
2017-04-02T10:32:39.971Z,33.55
2017-04-02T10:33:50.269Z,33.53
2017-04-02T10:35:00.557Z,33.55
2017-04-02T10:36:10.247Z,33.55
2017-04-02T10:37:20.797Z,33.45
2017-04-02T10:38:31.130Z,33.55
2017-04-02T10:39:41.463Z,33.65
2017-04-02T10:40:51.783Z,33.73
2017-04-02T10:42:02.107Z,33.74
2017-04-02T10:43:12.390Z,33.55
2017-04-02T10:44:22.383Z,33.44
2017-04-02T10:45:32.680Z,33.94
2017-04-02T10:46:42.990Z,33.74
2017-04-02T10:47:52.996Z,33.63
2017-04-02T10:49:02.919Z,33.45
2017-04-02T10:50:13.212Z,33.82
2017-04-02T10:51:23.508Z,33.65
2017-04-02T10:52:33.800Z,33.55
2017-04-02T10:53:44.110Z,33.73
2017-04-02T10:54:54.631Z,33.74
2017-04-02T10:56:04.320Z,33.74
2017-04-02T10:57:14.622Z,33.74
2017-04-02T10:58:24.957Z,33.74
2017-04-02T10:59:35.251Z,33.94
2017-04-02T11:00:45.840Z,33.84
2017-04-02T11:01:56.134Z,33.84
2017-04-02T11:03:06.437Z,33.84
2017-04-02T11:04:16.743Z,33.94
2017-04-02T11:05:27.064Z,34.03
2017-04-02T11:06:37.354Z,34.03
2017-04-02T11:07:47.331Z,33.94
2017-04-02T11:08:57.630Z,33.94
2017-04-02T11:10:07.608Z,33.94
2017-04-02T11:11:17.895Z,33.94
2017-04-02T11:12:28.477Z,33.94
2017-04-02T11:13:38.772Z,33.94
2017-04-02T11:14:49.055Z,34.03
2017-04-02T11:15:59.073Z,33.94
2017-04-02T11:17:09.408Z,33.94
2017-04-02T11:18:20.006Z,34.03
2017-04-02T11:19:29.981Z,33.94
2017-04-02T11:20:40.297Z,33.94
2017-04-02T11:21:50.584Z,33.94
2017-04-02T11:23:00.884Z,33.94
2017-04-02T11:24:11.472Z,34.03
2017-04-02T11:25:21.756Z,33.94
2017-04-02T11:26:31.733Z,34.03
2017-04-02T11:27:41.711Z,33.94
2017-04-02T11:28:51.994Z,33.84
2017-04-02T11:30:02.261Z,33.84
2017-04-02T11:31:12.551Z,34.13
2017-04-02T11:32:22.858Z,34.13
2017-04-02T11:33:33.150Z,34.13
2017-04-02T11:34:43.156Z,33.84
2017-04-02T11:35:53.741Z,33.94
2017-04-02T11:37:03.731Z,34.03
2017-04-02T11:38:14.029Z,34.03
2017-04-02T11:39:24.343Z,33.94
2017-04-02T11:40:34.644Z,33.94
2017-04-02T11:41:45.177Z,33.84
2017-04-02T11:42:55.506Z,33.94
2017-04-02T11:44:05.799Z,33.94
2017-04-02T11:45:16.024Z,33.94
2017-04-02T11:46:26.331Z,33.94
2017-04-02T11:47:36.558Z,34.03
2017-04-02T11:48:46.546Z,34.03
2017-04-02T11:49:56.839Z,33.94
2017-04-02T11:51:06.826Z,33.94
2017-04-02T11:52:17.134Z,33.94
2017-04-02T11:53:27.676Z,33.94
2017-04-02T11:54:37.651Z,34.03
2017-04-02T11:55:47.325Z,34.03
2017-04-02T11:56:57.621Z,33.94
2017-04-02T11:58:06.975Z,33.94
2017-04-02T11:59:16.885Z,33.94
2017-04-02T12:00:27.171Z,33.94
2017-04-02T12:01:37.470Z,33.94
2017-04-02T12:02:47.768Z,33.94
2017-04-02T12:03:58.046Z,34.03
2017-04-02T12:05:08.584Z,33.94
2017-04-02T12:06:18.866Z,34.03
2017-04-02T12:07:28.863Z,33.94
2017-04-02T12:08:38.851Z,34.03
2017-04-02T12:09:49.150Z,33.94
2017-04-02T12:10:59.694Z,34.03
2017-04-02T12:12:09.987Z,34.13
2017-04-02T12:13:20.296Z,33.94
2017-04-02T12:14:30.579Z,34.13
2017-04-02T12:15:40.590Z,33.94
2017-04-02T12:16:51.169Z,34.03
2017-04-02T12:18:01.142Z,34.03
2017-04-02T12:19:11.448Z,33.94
2017-04-02T12:20:21.743Z,34.03
2017-04-02T12:21:31.746Z,34.13
2017-04-02T12:22:42.351Z,34.13
2017-04-02T12:23:52.328Z,34.13
2017-04-02T12:25:02.303Z,34.03
2017-04-02T12:26:12.289Z,33.84
2017-04-02T12:27:22.576Z,33.84
2017-04-02T12:28:33.114Z,34.03
2017-04-02T12:29:43.422Z,34.13
2017-04-02T12:30:53.711Z,34.03
2017-04-02T12:32:03.992Z,33.94
2017-04-02T12:33:13.983Z,33.94
2017-04-02T12:34:24.222Z,33.74
2017-04-02T12:35:34.229Z,33.84
2017-04-02T12:36:44.523Z,33.74
2017-04-02T12:37:54.507Z,33.74
2017-04-02T12:39:04.486Z,33.94
2017-04-02T12:40:15.669Z,33.94
2017-04-02T12:41:25.984Z,33.84
2017-04-02T12:42:35.646Z,33.94
2017-04-02T12:43:45.618Z,34.03
2017-04-02T12:44:55.624Z,33.84
2017-04-02T12:46:06.180Z,33.84
2017-04-02T12:47:16.466Z,33.84
2017-04-02T12:48:26.744Z,33.65
2017-04-02T12:49:36.750Z,33.65
2017-04-02T12:50:47.036Z,33.45
2017-04-02T12:51:57.575Z,33.55
2017-04-02T12:53:07.866Z,33.07
2017-04-02T12:54:18.155Z,33.26
2017-04-02T12:55:28.438Z,33.17
2017-04-02T12:56:38.727Z,33.17
2017-04-02T12:57:49.263Z,33.07
2017-04-02T12:58:59.546Z,32.97
2017-04-02T13:00:09.519Z,33.36
2017-04-02T13:01:19.490Z,33.07
2017-04-02T13:02:29.778Z,33.45
2017-04-02T13:03:40.340Z,33.17
2017-04-02T13:04:50.324Z,33.17
2017-04-02T13:06:00.726Z,33.17
2017-04-02T13:07:10.699Z,33.07
2017-04-02T13:08:20.980Z,33.36
2017-04-02T13:09:31.194Z,33.07
2017-04-02T13:10:41.159Z,33.07
2017-04-02T13:11:51.453Z,33.26
2017-04-02T13:13:01.459Z,33.45
2017-04-02T13:14:11.762Z,33.07
2017-04-02T13:15:22.306Z,33.17
2017-04-02T13:16:32.611Z,33.55
2017-04-02T13:17:42.895Z,33.17
2017-04-02T13:18:52.558Z,33.26
2017-04-02T13:20:02.855Z,33.17
2017-04-02T13:21:13.393Z,33.45
2017-04-02T13:22:23.670Z,33.17
2017-04-02T13:23:33.658Z,32.87
2017-04-02T13:24:43.967Z,32.97
2017-04-02T13:25:53.944Z,32.97
2017-04-02T13:27:04.479Z,33.07
2017-04-02T13:28:14.761Z,33.07
2017-04-02T13:29:24.742Z,32.97
2017-04-02T13:30:35.053Z,33.17
2017-04-02T13:31:45.023Z,32.87
2017-04-02T13:32:55.564Z,32.97
2017-04-02T13:34:05.844Z,32.78
2017-04-02T13:35:16.141Z,32.68
2017-04-02T13:36:26.418Z,32.78
2017-04-02T13:37:36.718Z,32.87
2017-04-02T13:38:47.289Z,32.97
2017-04-02T13:39:57.574Z,32.97
2017-04-02T13:41:07.262Z,32.68
2017-04-02T13:42:17.581Z,32.49
2017-04-02T13:43:27.572Z,32.97
2017-04-02T13:44:37.869Z,32.97
2017-04-02T13:45:48.178Z,32.59
2017-04-02T13:46:58.197Z,32.39
2017-04-02T13:48:08.504Z,32.97
2017-04-02T13:49:18.791Z,32.59
2017-04-02T13:50:29.325Z,32.49
2017-04-02T13:51:39.632Z,32.49
2017-04-02T13:52:49.960Z,32.49
2017-04-02T13:53:59.629Z,32.49
2017-04-02T13:55:09.921Z,32.59
2017-04-02T13:56:20.480Z,32.68
2017-04-02T13:57:30.149Z,32.59
2017-04-02T13:58:40.441Z,32.49
2017-04-02T13:59:50.770Z,32.68
2017-04-02T14:01:01.064Z,32.49
2017-04-02T14:02:11.354Z,32.59
2017-04-02T14:03:21.348Z,32.59
2017-04-02T14:04:31.644Z,32.39
2017-04-02T14:05:41.951Z,32.68
2017-04-02T14:06:52.252Z,32.49
2017-04-02T14:08:02.790Z,32.49
2017-04-02T14:09:13.074Z,32.39
2017-04-02T14:10:23.379Z,32.39
2017-04-02T14:11:33.682Z,32.39
2017-04-02T14:12:43.996Z,32.29
2017-04-02T14:13:54.587Z,32.49
2017-04-02T14:15:04.862Z,32.49
2017-04-02T14:16:15.162Z,32.49
2017-04-02T14:17:25.151Z,32.29
2017-04-02T14:18:35.138Z,32.39
2017-04-02T14:19:45.692Z,32.49
2017-04-02T14:20:55.978Z,32.39
2017-04-02T14:22:05.963Z,32.29
2017-04-02T14:23:16.251Z,32.39
2017-04-02T14:24:26.580Z,32.59
2017-04-02T14:25:37.177Z,32.29
2017-04-02T14:26:47.167Z,32.49
2017-04-02T14:27:57.476Z,32.49
2017-04-02T14:29:07.782Z,32.39
2017-04-02T14:30:18.134Z,32.39
2017-04-02T14:31:28.684Z,32.39
2017-04-02T14:32:38.994Z,32.49
2017-04-02T14:33:48.985Z,32.39
2017-04-02T14:34:58.978Z,32.49
2017-04-02T14:36:08.642Z,32.49
2017-04-02T14:37:19.211Z,32.39
2017-04-02T14:38:29.509Z,32.39
2017-04-02T14:39:39.567Z,32.49
2017-04-02T14:40:49.859Z,32.39
2017-04-02T14:41:59.865Z,32.49
2017-04-02T14:43:09.850Z,32.49
2017-04-02T14:44:20.194Z,32.39
2017-04-02T14:45:30.506Z,32.39
2017-04-02T14:46:40.506Z,32.39
2017-04-02T14:47:50.813Z,32.49
2017-04-02T14:49:01.373Z,32.49
2017-04-02T14:50:11.384Z,32.49
2017-04-02T14:51:21.693Z,32.29
2017-04-02T14:52:32.014Z,32.49
2017-04-02T14:53:42.314Z,32.49
2017-04-02T14:54:52.935Z,32.68
2017-04-02T14:56:03.249Z,32.29
2017-04-02T14:57:13.256Z,32.39
2017-04-02T14:58:23.588Z,32.49
2017-04-02T14:59:33.884Z,32.29
2017-04-02T15:00:44.461Z,32.49
2017-04-02T15:01:54.775Z,32.29
2017-04-02T15:03:05.091Z,32.39
2017-04-02T15:04:15.091Z,32.59
2017-04-02T15:05:25.420Z,32.39
2017-04-02T15:06:35.680Z,32.39
2017-04-02T15:07:46.000Z,32.49
2017-04-02T15:08:56.314Z,32.39
2017-04-02T15:10:06.650Z,32.59